Flight Track Log - Related Links

Times and Time Zones

All times are in EST time to prevent confusion due to time zone crossing. See the PDT4226 flight status page for this flight to view local times or setup timezone preferences in your user account.

Time Position Orientation Groundspeed Altitude Reporting Facility
EST Latitude Longitude Course Direction KTS MPH feet Rate Location/Type
Sat 02:33:33 PM 39.8667 -75.2667 270° West 120 138 700  Level Philadelphia TRACON
Sat 02:34:28 PM 39.8667 -75.3167 270° West 138 159 2,200 1,409 Climbing Philadelphia TRACON
Sat 02:35:28 PM 39.8833 -75.3500 303° West 147 169 3,400 1,394 Climbing Philadelphia TRACON
Sat 02:36:07 PM 39.9039 -75.3817 310° West 147 169 4,500 1,440 Climbing New York Center
Sat 02:37:08 PM 39.9394 -75.4147 325° Northwest 154 177 5,800 1,171 Climbing New York Center
Sat 02:38:10 PM 39.9869 -75.4350 342° North 181 208 6,900 1,113 Climbing New York Center
Sat 02:39:12 PM 40.0428 -75.4583 342° North 195 224 8,100 1,016 Climbing New York Center
Sat 02:40:14 PM 40.0947 -75.4828 340° North 199 229 9,000 488 Climbing New York Center
Sat 02:41:15 PM 40.1528 -75.5164 336° Northwest 230 265 9,100 146 Climbing New York Center
Sat 02:42:17 PM 40.2117 -75.5581 332° Northwest 235 270 9,300 532 Climbing New York Center
Sat 02:43:19 PM 40.2506 -75.6114 314° West 187 215 10,200 871 Climbing New York Center
Sat 02:44:21 PM 40.2894 -75.6631 315° West 189 217 11,100 829 Climbing New York Center
Sat 02:45:22 PM 40.3453 -75.6897 340° North 206 237 11,900 439 Climbing New York Center
Sat 02:46:24 PM 40.4003 -75.7292 331° Northwest 219 252 12,000 290 Climbing New York Center
Sat 02:47:26 PM 40.4583 -75.7606 338° Northwest 236 272 12,500 629 Climbing New York Center
Sat 02:48:28 PM 40.5194 -75.7908 339° North 227 261 13,300 732 Climbing New York Center
Sat 02:49:29 PM 40.5764 -75.8233 337° Northwest 215 247 14,000 341 Climbing New York Center
Sat 02:50:31 PM 40.6389 -75.8603 336° Northwest 239 275 14,000  Level New York Center
Sat 02:51:33 PM 40.7025 -75.8917 339° North 251 289 14,000 -48 Level New York Center
Sat 02:52:35 PM 40.7711 -75.9381 333° Northwest 257 296 13,900 -49 Descending New York Center
Sat 02:53:36 PM 40.8386 -75.9817 334° Northwest 258 297 13,900  Level New York Center
Sat 02:54:38 PM 40.9097 -76.0175 339° North 264 304 13,900 48 Level New York Center
Sat 02:55:40 PM 40.9739 -76.0556 336° Northwest 262 302 14,000 48 Climbing New York Center
Sat 02:56:42 PM 41.0400 -76.0967 335° Northwest 256 295 14,000  Level New York Center
Sat 02:57:43 PM 41.1122 -76.1319 340° North 265 305 14,000  Level New York Center
Sat 02:58:45 PM 41.1803 -76.1761 334° Northwest 261 300 14,000  Level New York Center
Sat 02:59:47 PM 41.2519 -76.2108 340° North 263 303 14,000  Level New York Center
Sat 03:00:49 PM 41.3292 -76.1981 North 288 331 14,000  Level New York Center
Sat 03:01:50 PM 41.4111 -76.1953 North 282 325 14,000  Level New York Center
Sat 03:02:52 PM 41.4933 -76.1919 North 281 323 14,000 -145 Level New York Center
Sat 03:03:54 PM 41.5767 -76.1786 North 285 328 13,700 -581 Descending New York Center
Sat 03:04:56 PM 41.6647 -76.1714 North 301 346 12,800 -1,113 Descending New York Center
Sat 03:05:58 PM 41.7450 -76.1686 North 301 346 11,400 -1,512 Descending New York Center
Sat 03:06:59 PM 41.8269 -76.1614 North 287 330 9,700 -1,610 Descending New York Center
Sat 03:08:01 PM 41.9067 -76.1536 North 279 321 8,100 -1,500 Descending New York Center
Sat 03:09:03 PM 41.9800 -76.1350 11° North 266 306 6,600 -1,258 Descending New York Center
Sat 03:10:05 PM 42.0400 -76.0883 30° Northeast 261 300 5,500 -919 Descending New York Center
Sat 03:11:07 PM 42.1094 -76.0522 21° North 257 296 4,700 -780 Descending New York Center
Sat 03:12:08 PM 42.1742 -76.0567 357° North 241 277 3,900 -732 Descending New York Center
Sat 03:13:10 PM 42.2244 -76.0603 357° North 206 237 3,200 -629 Descending New York Center
Sat 03:14:12 PM 42.2528 -76.0269 41° Northeast 162 186 2,600 -484 Descending New York Center
Sat 03:15:14 PM 42.2325 -75.9981 133° Southeast 134 154 2,200 -387 Descending New York Center

Login

Don't have an account? Register now (free) for customized features, flight alerts, and more!